Time;durP1;ratioP1;P1;durP2;ratioP2;P2;SDS_P1;SDS_P2;PMS_P1;PMS_P2;Temp;Humidity;BMP_temperature;BMP_pressure;BME280_temperature;BME280_humidity;BME280_pressure;Samples;Min_cycle;Max_cycle;Signal;HPM_P1;HPM_P2
2021/05/06 00:32:50;;;;;;;1999.90;999.90;;;5.70;99.90;;;;;;5057029;28;20153;-78
2021/05/06 00:35:16;;;;;;;1999.90;999.90;;;5.60;99.90;;;;;;5038979;28;20153;-79
2021/05/06 00:37:55;;;;;;;1999.90;999.90;;;5.60;99.90;;;;;;5055920;28;20184;-79
2021/05/06 00:40:22;;;;;;;1999.90;999.90;;;5.50;99.90;;;;;;5056807;28;20414;-79
2021/05/06 00:46:11;;;;;;;1999.90;999.90;;;5.30;99.90;;;;;;5056646;28;20144;-79
2021/05/06 00:54:24;;;;;;;1999.90;999.90;;;5.30;99.90;;;;;;5057071;28;20159;-78
2021/05/06 01:12:28;;;;;;;1999.90;999.90;;;5.10;99.90;;;;;;5056518;28;20214;-79
2021/05/06 01:14:54;;;;;;;1999.90;999.90;;;5.20;99.90;;;;;;5055657;28;20164;-79
2021/05/06 01:17:19;;;;;;;1999.90;999.90;;;5.30;99.90;;;;;;5038379;28;20250;-79
2021/05/06 01:19:45;;;;;;;1999.90;999.90;;;5.30;99.90;;;;;;5055885;28;20169;-79
2021/05/06 01:22:11;;;;;;;1999.90;999.90;;;5.30;99.90;;;;;;5057142;28;20200;-79
2021/05/06 01:24:37;;;;;;;1999.90;999.90;;;5.30;99.90;;;;;;5055865;28;20403;-79
2021/05/06 01:27:08;;;;;;;1999.90;999.90;;;5.30;99.90;;;;;;5055545;28;20244;-79
2021/05/06 01:32:23;;;;;;;1999.90;999.90;;;5.30;99.90;;;;;;5056413;28;20615;-78
2021/05/06 01:34:59;;;;;;;1999.90;999.90;;;5.40;99.90;;;;;;5055709;28;20227;-79
2021/05/06 01:37:55;;;;;;;1999.90;999.90;;;5.50;99.90;;;;;;5055956;28;20191;-79
2021/05/06 01:42:48;;;;;;;1999.90;999.90;;;5.60;99.90;;;;;;5055057;28;20279;-79
2021/05/06 01:58:32;;;;;;;1999.90;999.90;;;5.90;99.90;;;;;;5059582;28;20333;-79
2021/05/06 02:01:06;;;;;;;1999.90;999.90;;;6.10;99.90;;;;;;5059312;28;20236;-79
2021/05/06 02:03:33;;;;;;;1999.90;999.90;;;6.00;99.90;;;;;;5041311;28;20284;-78
2021/05/06 02:06:00;;;;;;;1999.90;999.90;;;6.10;99.90;;;;;;5059339;28;20179;-79
2021/05/06 02:08:26;;;;;;;1999.90;999.90;;;6.10;99.90;;;;;;5059591;28;20189;-78
2021/05/06 02:10:56;;;;;;;1999.90;999.90;;;6.00;99.90;;;;;;5059261;28;20171;-79
2021/05/06 02:13:22;;;;;;;1999.90;999.90;;;6.10;99.90;;;;;;5059548;28;20153;-79
2021/05/06 02:15:54;;;;;;;1999.90;999.90;;;6.00;99.90;;;;;;5058908;28;20164;-79
2021/05/06 02:18:20;;;;;;;1999.90;999.90;;;6.00;99.90;;;;;;5041203;28;20184;-79
2021/05/06 02:20:47;;;;;;;1999.90;999.90;;;5.90;99.90;;;;;;5059072;28;20164;-78
2021/05/06 02:23:13;;;;;;;1999.90;999.90;;;5.90;99.90;;;;;;5059773;28;20438;-79
2021/05/06 02:25:39;;;;;;;1999.90;999.90;;;5.80;99.90;;;;;;5058662;28;20184;-79
2021/05/06 02:28:04;;;;;;;1999.90;999.90;;;5.80;99.90;;;;;;5058659;28;20188;-79
2021/05/06 02:30:30;;;;;;;1999.90;999.90;;;5.90;99.90;;;;;;5058715;28;20171;-78
2021/05/06 02:32:59;;;;;;;1999.90;999.90;;;5.90;99.90;;;;;;5058891;28;20260;-79
2021/05/06 02:35:24;;;;;;;1999.90;999.90;;;5.90;99.90;;;;;;5057432;28;20169;-79
2021/05/06 02:37:50;;;;;;;1999.90;999.90;;;5.90;99.90;;;;;;5058857;28;20737;-79
2021/05/06 02:40:16;;;;;;;1999.90;999.90;;;5.90;99.90;;;;;;5040194;28;20251;-78
2021/05/06 02:42:41;;;;;;;1999.90;999.90;;;5.90;99.90;;;;;;5040299;28;20723;-78
2021/05/06 02:45:09;;;;;;;1999.90;999.90;;;6.00;99.90;;;;;;5058533;28;20161;-79
2021/05/06 02:47:35;;;;;;;1999.90;999.90;;;5.90;99.90;;;;;;5040688;28;20802;-78
2021/05/06 02:50:01;;;;;;;1999.90;999.90;;;5.80;99.90;;;;;;5058502;28;20243;-79
2021/05/06 02:52:48;;;;;;;1999.90;999.90;;;5.80;99.90;;;;;;5058941;28;20407;-79
2021/05/06 02:55:22;;;;;;;1999.90;999.90;;;5.80;99.90;;;;;;5058371;28;20738;-79
2021/05/06 02:57:53;;;;;;;1999.90;999.90;;;5.80;99.90;;;;;;5058326;28;20218;-79
2021/05/06 03:03:04;;;;;;;1999.90;999.90;;;5.90;99.90;;;;;;5058071;28;20256;-79
2021/05/06 03:05:33;;;;;;;1999.90;999.90;;;5.90;99.90;;;;;;5040076;28;20164;-79
2021/05/06 03:08:06;;;;;;;1999.90;999.90;;;6.00;99.90;;;;;;5058492;28;20184;-78
2021/05/06 03:24:32;;;;;;;1999.90;999.90;;;6.10;99.90;;;;;;4996075;28;20708;-78
2021/05/06 03:26:59;;;;;;;1999.90;999.90;;;6.10;99.90;;;;;;4996723;28;20688;-79
2021/05/06 03:29:38;;;;;;;1999.90;999.90;;;6.10;99.90;;;;;;5012380;28;20246;-79
2021/05/06 04:36:14;;;;;;;1999.90;999.90;;;6.70;99.90;;;;;;5056713;28;20163;-79
2021/05/06 04:38:40;;;;;;;1999.90;999.90;;;6.60;99.90;;;;;;5056508;28;20189;-79
2021/05/06 04:44:16;;;;;;;1999.90;999.90;;;6.60;99.90;;;;;;5056728;28;20191;-79
2021/05/06 04:56:50;;;;;;;1999.90;999.90;;;7.00;99.90;;;;;;5056466;28;20192;-79
2021/05/06 05:03:19;;;;;;;1999.90;999.90;;;7.10;99.90;;;;;;5056421;28;20188;-79
2021/05/06 05:04:48;;;;;;;1999.90;999.90;;;7.10;99.90;;;;;;5135662;22;20227;-81
2021/05/06 05:23:48;;;;;;;1999.90;999.90;;;7.60;99.90;;;;;;5076155;28;20191;-79
2021/05/06 05:26:14;;;;;;;1999.90;999.90;;;7.60;99.90;;;;;;5082748;28;20603;-79
2021/05/06 05:28:40;;;;;;;1999.90;999.90;;;7.70;99.90;;;;;;5082205;28;20637;-79
2021/05/06 05:31:06;;;;;;;1999.90;999.90;;;7.60;99.90;;;;;;5082438;28;20163;-78
2021/05/06 05:34:21;;;;;;;1999.90;999.90;;;7.70;99.90;;;;;;5081561;28;20164;-78
2021/05/06 05:36:25;;;;;;;1999.90;999.90;;;7.70;99.90;;;;;;5079957;28;20179;-78
2021/05/06 05:39:10;;;;;;;1999.90;999.90;;;7.80;99.90;;;;;;5080388;28;20292;-78
2021/05/06 05:55:26;;;;;;;1999.90;999.90;;;8.00;99.90;;;;;;5080740;28;20154;-78
2021/05/06 05:57:52;;;;;;;1999.90;999.90;;;8.10;99.90;;;;;;5081279;28;20180;-79
2021/05/06 06:00:19;;;;;;;1999.90;999.90;;;8.10;99.90;;;;;;5081379;28;20282;-78
2021/05/06 06:02:45;;;;;;;1999.90;999.90;;;8.10;99.90;;;;;;5081318;28;20224;-78
2021/05/06 06:05:11;;;;;;;1999.90;999.90;;;8.10;99.90;;;;;;5080088;28;20226;-78
2021/05/06 06:07:37;;;;;;;1999.90;999.90;;;8.20;99.90;;;;;;5080853;28;20179;-78
2021/05/06 06:10:04;;;;;;;1999.90;999.90;;;8.20;99.90;;;;;;5080976;28;20159;-79
2021/05/06 06:12:30;;;;;;;1999.90;999.90;;;8.30;99.90;;;;;;5080507;28;20300;-78
2021/05/06 06:15:04;;;;;;;1999.90;999.90;;;8.30;99.90;;;;;;5080690;28;20195;-78
2021/05/06 06:17:39;;;;;;;1999.90;999.90;;;8.20;99.90;;;;;;5079454;28;20198;-78
2021/05/06 06:20:05;;;;;;;1999.90;999.90;;;8.30;99.90;;;;;;5080380;28;20158;-78
2021/05/06 06:22:31;;;;;;;1999.90;999.90;;;8.30;99.90;;;;;;5080874;28;20669;-78
2021/05/06 06:24:58;;;;;;;1999.90;999.90;;;8.30;99.90;;;;;;5080604;28;20159;-77
2021/05/06 06:27:24;;;;;;;1999.90;999.90;;;8.40;99.90;;;;;;5080547;28;20758;-78
2021/05/06 06:29:49;;;;;;;1999.90;999.90;;;8.40;99.90;;;;;;5080891;28;20171;-78
2021/05/06 06:32:17;;;;;;;1999.90;999.90;;;8.40;99.90;;;;;;5080380;28;20171;-78
2021/05/06 06:34:43;;;;;;;1999.90;999.90;;;8.40;99.90;;;;;;5080667;28;20406;-78
2021/05/06 06:37:09;;;;;;;1999.90;999.90;;;8.50;99.90;;;;;;5077687;28;20191;-77
2021/05/06 06:39:39;;;;;;;1999.90;999.90;;;8.50;99.90;;;;;;5077565;28;20920;-77
2021/05/06 06:42:08;;;;;;;1999.90;999.90;;;8.60;99.90;;;;;;5076939;28;20470;-78
2021/05/06 06:44:35;;;;;;;1999.90;999.90;;;8.70;99.90;;;;;;5076516;28;20217;-78
2021/05/06 06:47:02;;;;;;;1999.90;999.90;;;8.70;99.90;;;;;;5077169;28;20221;-78
2021/05/06 06:49:32;;;;;;;1999.90;999.90;;;8.60;99.90;;;;;;5077526;28;20187;-79
2021/05/06 06:51:59;;;;;;;1999.90;999.90;;;8.70;99.90;;;;;;5078845;28;20231;-78
2021/05/06 06:54:26;;;;;;;1999.90;999.90;;;8.70;99.90;;;;;;5077914;28;20171;-77
2021/05/06 06:56:52;;;;;;;1999.90;999.90;;;8.70;99.90;;;;;;5076821;28;20538;-78
2021/05/06 06:59:18;;;;;;;1999.90;999.90;;;8.70;99.90;;;;;;5078997;28;20219;-79
2021/05/06 07:01:44;;;;;;;1999.90;999.90;;;8.80;99.90;;;;;;5077918;28;20172;-78
2021/05/06 07:04:11;;;;;;;1999.90;999.90;;;8.80;99.90;;;;;;5077773;28;20576;-77
2021/05/06 07:06:39;;;;;;;1999.90;999.90;;;8.90;99.90;;;;;;5077198;28;20160;-78
2021/05/06 07:09:08;;;;;;;1999.90;999.90;;;8.90;99.90;;;;;;5077967;28;20188;-77
2021/05/06 07:11:34;;;;;;;1999.90;999.90;;;8.90;99.90;;;;;;5077949;28;20601;-77
2021/05/06 07:14:00;;;;;;;1999.90;999.90;;;9.00;99.90;;;;;;5077348;28;20163;-78
2021/05/06 07:16:25;;;;;;;1999.90;999.90;;;9.00;99.90;;;;;;5074629;28;20171;-77
2021/05/06 07:18:51;;;;;;;1999.90;999.90;;;9.00;99.90;;;;;;5075958;28;20646;-77
2021/05/06 07:21:17;;;;;;;1999.90;999.90;;;9.20;99.90;;;;;;5075694;28;20164;-77
2021/05/06 07:23:43;;;;;;;1999.90;999.90;;;9.20;99.90;;;;;;5075960;28;20241;-77
2021/05/06 07:26:08;;;;;;;1999.90;999.90;;;9.30;99.90;;;;;;5074433;28;20410;-77
2021/05/06 07:28:39;;;;;;;1999.90;999.90;;;9.30;99.90;;;;;;5075999;28;20184;-77
2021/05/06 07:31:07;;;;;;;1999.90;999.90;;;9.40;99.90;;;;;;5075766;28;20160;-78
2021/05/06 07:33:34;;;;;;;1999.90;999.90;;;9.50;99.90;;;;;;5075598;28;20209;-77
2021/05/06 07:36:01;;;;;;;1999.90;999.90;;;9.50;99.90;;;;;;5073987;28;20225;-77
2021/05/06 07:38:29;;;;;;;1999.90;999.90;;;9.50;99.90;;;;;;5075118;28;20187;-77
2021/05/06 07:40:57;;;;;;;1999.90;999.90;;;9.50;99.90;;;;;;5075086;28;20646;-76
2021/05/06 07:43:23;;;;;;;1999.90;999.90;;;9.50;99.90;;;;;;5075104;28;20237;-77
2021/05/06 07:45:48;;;;;;;1999.90;999.90;;;9.70;99.90;;;;;;5074923;28;20155;-78
2021/05/06 07:48:17;;;;;;;1999.90;999.90;;;9.70;99.90;;;;;;5074802;28;20180;-79
2021/05/06 07:50:43;;;;;;;1999.90;999.90;;;9.90;99.90;;;;;;5075062;28;20187;-78
2021/05/06 07:53:12;;;;;;;1999.90;999.90;;;10.10;99.90;;;;;;5076411;28;20635;-79
2021/05/06 07:55:38;;;;;;;1999.90;999.90;;;10.20;99.90;;;;;;5074573;28;20198;-78
2021/05/06 07:58:05;;;;;;;1999.90;999.90;;;10.30;99.70;;;;;;5075794;28;20184;-79
2021/05/06 08:00:32;;;;;;;1999.90;999.90;;;10.30;99.90;;;;;;5075094;28;20606;-78
2021/05/06 08:02:57;;;;;;;1999.90;999.90;;;10.40;99.70;;;;;;5074429;28;20732;-77
2021/05/06 08:05:24;;;;;;;1999.90;999.90;;;10.50;99.40;;;;;;5075061;28;20254;-78
2021/05/06 08:07:59;;;;;;;1999.90;999.90;;;10.50;96.70;;;;;;5076394;28;20925;-78
2021/05/06 08:10:26;;;;;;;1999.90;999.90;;;10.50;95.60;;;;;;5075049;28;20144;-77
2021/05/06 08:12:54;;;;;;;1999.90;999.90;;;10.40;95.30;;;;;;5074781;28;20160;-77
2021/05/06 08:15:20;;;;;;;1999.90;999.90;;;10.40;96.60;;;;;;5075606;28;20164;-77
2021/05/06 08:17:46;;;;;;;1999.90;999.90;;;10.40;96.70;;;;;;5075286;28;20610;-78
2021/05/06 08:20:14;;;;;;;1999.90;999.90;;;10.60;99.00;;;;;;5075679;28;20175;-77
2021/05/06 08:22:40;;;;;;;1999.90;999.90;;;10.70;97.50;;;;;;5075777;28;20853;-79
2021/05/06 08:25:11;;;;;;;1999.90;999.90;;;10.80;97.90;;;;;;5074493;28;20164;-79
2021/05/06 08:27:39;;;;;;;1999.90;999.90;;;10.90;97.00;;;;;;5076248;28;20524;-78
2021/05/06 08:30:10;;;;;;;1999.90;999.90;;;10.90;92.10;;;;;;5074729;28;20242;-80
2021/05/06 08:32:36;;;;;;;1999.90;999.90;;;10.90;91.70;;;;;;5075360;28;20266;-78
2021/05/06 08:35:03;;;;;;;1999.90;999.90;;;10.90;94.30;;;;;;5074031;28;20167;-77
2021/05/06 08:37:28;;;;;;;1999.90;999.90;;;10.90;95.20;;;;;;5072563;28;20747;-79
2021/05/06 08:39:54;;;;;;;1999.90;999.90;;;11.10;96.00;;;;;;5074270;28;20195;-77
2021/05/06 08:42:20;;;;;;;1999.90;999.90;;;11.20;96.10;;;;;;5072817;28;20195;-77
2021/05/06 08:44:46;;;;;;;1999.90;999.90;;;11.30;90.80;;;;;;5073931;28;20164;-78
2021/05/06 08:47:20;;;;;;;1999.90;999.90;;;11.30;90.70;;;;;;5074014;28;20184;-78
2021/05/06 08:49:47;;;;;;;1999.90;999.90;;;11.30;87.30;;;;;;5073884;28;20166;-77
2021/05/06 08:52:18;;;;;;;1999.90;999.90;;;11.30;86.50;;;;;;5072640;28;20179;-78
2021/05/06 08:54:44;;;;;;;1999.90;999.90;;;11.40;82.70;;;;;;5074075;28;20148;-77
2021/05/06 08:57:10;;;;;;;1999.90;999.90;;;11.50;74.40;;;;;;5073858;28;20269;-78
2021/05/06 08:59:36;;;;;;;1999.90;999.90;;;11.40;83.00;;;;;;5071995;28;20402;-78
2021/05/06 09:02:02;;;;;;;1999.90;999.90;;;11.60;85.10;;;;;;5073856;28;20179;-78
2021/05/06 09:04:31;;;;;;;1999.90;999.90;;;11.60;65.50;;;;;;5074017;28;20179;-79
2021/05/06 09:07:01;;;;;;;1999.90;999.90;;;11.60;65.80;;;;;;5104024;22;20192;-79
2021/05/06 09:10:30;;;;;;;1999.90;999.90;;;11.70;66.70;;;;;;5054085;28;20157;-79
2021/05/06 09:13:42;;;;;;;1999.90;999.90;;;11.80;74.00;;;;;;5053700;28;20172;-79
2021/05/06 09:16:14;;;;;;;1999.90;999.90;;;11.90;51.40;;;;;;5035589;28;20259;-78
2021/05/06 09:19:14;;;;;;;1999.90;999.90;;;12.00;54.10;;;;;;5054402;28;20184;-79
2021/05/06 09:21:45;;;;;;;1999.90;999.90;;;12.00;53.10;;;;;;5053889;28;20164;-79
2021/05/06 09:24:39;;;;;;;1999.90;999.90;;;12.20;57.60;;;;;;5054446;28;20145;-78
2021/05/06 09:27:05;;;;;;;1999.90;999.90;;;12.30;49.00;;;;;;5055021;28;20187;-82
2021/05/06 09:29:34;;;;;;;1999.90;999.90;;;12.60;40.10;;;;;;5036846;28;20211;-78
2021/05/06 09:32:22;;;;;;;1999.90;999.90;;;12.80;39.70;;;;;;5037048;28;20168;-79
2021/05/06 09:34:52;;;;;;;1999.90;999.90;;;13.00;44.30;;;;;;5054623;28;20173;-79
2021/05/06 09:37:44;;;;;;;1999.90;999.90;;;13.00;45.30;;;;;;5054874;28;20188;-79
2021/05/06 09:40:30;;;;;;;1999.90;999.90;;;13.20;37.50;;;;;;5054115;28;20141;-78
2021/05/06 09:42:57;;;;;;;1999.90;999.90;;;13.30;27.20;;;;;;5054635;28;20173;-79
2021/05/06 09:45:25;;;;;;;1999.90;999.90;;;13.20;22.40;;;;;;5055171;28;20171;-80
2021/05/06 09:48:16;;;;;;;1999.90;999.90;;;13.10;20.00;;;;;;5055622;28;20551;-79
2021/05/06 09:50:56;;;;;;;1999.90;999.90;;;13.20;18.50;;;;;;5055879;28;20217;-79
2021/05/06 09:53:23;;;;;;;1999.90;999.90;;;13.10;15.70;;;;;;5056333;28;20196;-79
2021/05/06 09:56:20;;;;;;;1999.90;999.90;;;13.10;16.70;;;;;;5055184;28;20192;-81
2021/05/06 09:58:46;;;;;;;1999.90;999.90;;;13.30;14.20;;;;;;5039375;28;20564;-78
2021/05/06 10:01:13;;;;;;;1999.90;999.90;;;13.60;14.80;;;;;;5036192;28;20223;-79
2021/05/06 10:03:44;;;;;;;1999.90;999.90;;;13.80;16.90;;;;;;5036075;28;20192;-79
2021/05/06 10:06:25;;;;;;;1999.90;999.90;;;14.00;10.80;;;;;;5054360;28;20573;-79
2021/05/06 10:09:05;;;;;;;1999.90;999.90;;;14.00;10.20;;;;;;5036212;28;20200;-78
2021/05/06 10:11:31;;;;;;;1999.90;999.90;;;14.20;7.00;;;;;;5055474;28;20169;-79
2021/05/06 10:14:00;;;;;;;1999.90;999.90;;;14.20;6.60;;;;;;5057528;28;20192;-79
2021/05/06 10:16:26;;;;;;;1999.90;999.90;;;14.20;7.70;;;;;;5057487;28;20165;-78
2021/05/06 10:19:02;;;;;;;1999.90;999.90;;;14.50;8.80;;;;;;5039594;28;20798;-80
2021/05/06 10:21:28;;;;;;;1999.90;999.90;;;14.60;7.70;;;;;;5056870;28;20600;-79
2021/05/06 10:23:55;;;;;;;1999.90;999.90;;;14.90;9.00;;;;;;5056331;28;20488;-79
2021/05/06 10:26:23;;;;;;;1999.90;999.90;;;15.00;7.30;;;;;;5056368;28;20164;-79
2021/05/06 10:28:57;;;;;;;1999.90;999.90;;;14.90;1.70;;;;;;5059183;28;20526;-80
2021/05/06 10:31:31;;;;;;;1999.90;999.90;;;14.80;1.00;;;;;;5058287;28;20379;-79
2021/05/06 10:34:02;;;;;;;1999.90;999.90;;;14.90;1.10;;;;;;5057784;28;20916;-78
2021/05/06 10:36:31;;;;;;;1999.90;999.90;;;14.90;1.00;;;;;;5057173;28;20403;-78
2021/05/06 10:38:57;;;;;;;1999.90;999.90;;;15.20;1.00;;;;;;5056878;28;20426;-78
2021/05/06 10:41:29;;;;;;;1999.90;999.90;;;15.10;1.00;;;;;;5057264;28;20407;-79
2021/05/06 10:44:15;;;;;;;1999.90;999.90;;;15.10;1.00;;;;;;5039283;28;20446;-78
2021/05/06 10:47:03;;;;;;;1999.90;999.90;;;15.10;1.00;;;;;;5041624;28;20380;-78
2021/05/06 10:49:42;;;;;;;1999.90;999.90;;;15.10;1.00;;;;;;5058296;28;20394;-78
2021/05/06 10:52:13;;;;;;;1999.90;999.90;;;15.10;1.00;;;;;;5057321;28;20395;-78
2021/05/06 10:54:53;;;;;;;1999.90;999.90;;;14.80;1.00;;;;;;5057051;28;20372;-78
2021/05/06 10:57:30;;;;;;;1999.90;999.90;;;14.80;1.00;;;;;;5057443;28;20410;-78
2021/05/06 10:59:56;;;;;;;1999.90;999.90;;;14.80;1.00;;;;;;5057700;28;20374;-80
2021/05/06 11:05:11;;;;;;;1999.90;999.90;;;14.90;1.00;;;;;;5134647;22;20232;-85
2021/05/06 11:07:37;;;;;;;1999.90;999.90;;;14.70;1.00;;;;;;5064397;28;20505;-86
2021/05/06 11:10:04;;;;;;;1999.90;999.90;;;14.70;1.00;;;;;;5066870;28;20406;-85
2021/05/06 11:12:35;;;;;;;1999.90;999.90;;;14.80;1.00;;;;;;5067019;28;20399;-85
2021/05/06 11:15:01;;;;;;;1999.90;999.90;;;14.80;1.00;;;;;;5066100;28;20414;-85
2021/05/06 11:17:33;;;;;;;1999.90;999.90;;;14.80;1.00;;;;;;5064690;28;20569;-85
2021/05/06 11:19:59;;;;;;;1999.90;999.90;;;15.00;1.00;;;;;;5062760;28;20406;-85
2021/05/06 11:22:43;;;;;;;1999.90;999.90;;;15.10;1.00;;;;;;5062530;28;20455;-85
2021/05/06 11:25:50;;;;;;;1999.90;999.90;;;14.90;1.00;;;;;;5062075;28;20409;-85
2021/05/06 11:28:19;;;;;;;1999.90;999.90;;;14.80;1.00;;;;;;5032733;28;20444;-86
2021/05/06 11:30:46;;;;;;;1999.90;999.90;;;15.00;1.00;;;;;;5060190;28;20408;-85
2021/05/06 11:33:21;;;;;;;1999.90;999.90;;;15.20;1.00;;;;;;5060899;28;20433;-85
2021/05/06 11:36:08;;;;;;;1999.90;999.90;;;15.40;1.00;;;;;;5060848;28;20766;-85
2021/05/06 11:41:04;;;;;;;1999.90;999.90;;;15.30;1.00;;;;;;5060523;28;20484;-84
2021/05/06 11:43:31;;;;;;;1999.90;999.90;;;15.10;1.00;;;;;;5061205;28;20442;-85
2021/05/06 11:46:20;;;;;;;1999.90;999.90;;;15.20;1.00;;;;;;5061239;28;20457;-85
2021/05/06 11:48:57;;;;;;;1999.90;999.90;;;15.30;1.00;;;;;;5060643;28;20430;-85
2021/05/06 11:51:31;;;;;;;1999.90;999.90;;;15.10;1.00;;;;;;5060138;28;20407;-85
2021/05/06 11:54:05;;;;;;;1999.90;999.90;;;15.20;1.00;;;;;;5060998;28;20456;-84
2021/05/06 11:56:31;;;;;;;1999.90;999.90;;;15.40;1.00;;;;;;5060990;28;20751;-84
2021/05/06 11:58:59;;;;;;;1999.90;999.90;;;15.50;1.00;;;;;;5059496;28;20819;-84
2021/05/06 12:01:25;;;;;;;1999.90;999.90;;;15.50;1.00;;;;;;5059960;28;20401;-84
2021/05/06 12:03:51;;;;;;;1999.90;999.90;;;15.50;1.00;;;;;;5058660;28;20478;-84
2021/05/06 12:06:36;;;;;;;1999.90;999.90;;;15.50;1.00;;;;;;5057677;28;20406;-84
2021/05/06 12:09:07;;;;;;;1999.90;999.90;;;15.50;1.00;;;;;;5058057;28;20814;-82
2021/05/06 12:11:41;;;;;;;1999.90;999.90;;;15.20;1.00;;;;;;5060501;28;20489;-81
2021/05/06 12:14:09;;;;;;;1999.90;999.90;;;15.10;1.00;;;;;;5060308;28;20408;-81
2021/05/06 12:16:36;;;;;;;1999.90;999.90;;;15.30;1.00;;;;;;5059172;28;20412;-81
2021/05/06 12:19:09;;;;;;;1999.90;999.90;;;15.40;1.00;;;;;;5059425;28;20423;-81
2021/05/06 12:21:36;;;;;;;1999.90;999.90;;;15.50;1.00;;;;;;5058359;28;20771;-81
2021/05/06 12:24:03;;;;;;;1999.90;999.90;;;15.70;1.00;;;;;;5058954;28;20451;-81
2021/05/06 12:26:29;;;;;;;1999.90;999.90;;;15.70;1.00;;;;;;5058526;28;20424;-82
2021/05/06 12:28:56;;;;;;;1999.90;999.90;;;15.70;1.00;;;;;;5058090;28;20513;-82
2021/05/06 12:31:23;;;;;;;1999.90;999.90;;;15.70;1.00;;;;;;5058271;28;20428;-81
2021/05/06 12:33:49;;;;;;;1999.90;999.90;;;15.70;1.00;;;;;;5058044;28;20412;-81
2021/05/06 12:36:16;;;;;;;1999.90;999.90;;;15.70;1.00;;;;;;5059209;28;20390;-81
2021/05/06 12:38:43;;;;;;;1999.90;999.90;;;15.70;1.00;;;;;;5058029;28;20499;-82
2021/05/06 12:41:10;;;;;;;1999.90;999.90;;;15.60;1.00;;;;;;5057638;28;20411;-84
2021/05/06 12:43:44;;;;;;;1999.90;999.90;;;15.70;1.00;;;;;;5059080;28;20446;-85
2021/05/06 12:46:11;;;;;;;1999.90;999.90;;;15.80;1.00;;;;;;5045219;28;20404;-85
2021/05/06 12:48:52;;;;;;;1999.90;999.90;;;15.80;1.00;;;;;;5059661;28;20452;-84
2021/05/06 12:51:19;;;;;;;1999.90;999.90;;;15.90;1.00;;;;;;5059210;28;20380;-84
2021/05/06 12:54:17;;;;;;;1999.90;999.90;;;15.90;1.00;;;;;;5058850;28;20854;-84
2021/05/06 12:56:44;;;;;;;1999.90;999.90;;;16.00;1.00;;;;;;5009349;28;20411;-84
2021/05/06 12:59:29;;;;;;;1999.90;999.90;;;15.90;1.00;;;;;;5057801;28;20431;-84
2021/05/06 13:02:11;;;;;;;1999.90;999.90;;;16.00;1.00;;;;;;5056942;28;20414;-84
2021/05/06 13:04:50;;;;;;;1999.90;999.90;;;16.00;1.00;;;;;;5055821;28;20434;-84
2021/05/06 13:07:19;;;;;;;1999.90;999.90;;;16.10;1.00;;;;;;5057004;28;20461;-85
2021/05/06 13:09:47;;;;;;;1999.90;999.90;;;15.80;1.00;;;;;;5055779;28;20506;-84
2021/05/06 13:12:15;;;;;;;1999.90;999.90;;;15.70;1.00;;;;;;5055591;28;20506;-85
2021/05/06 13:15:01;;;;;;;1999.90;999.90;;;15.50;1.00;;;;;;5054968;28;20412;-84
2021/05/06 13:17:34;;;;;;;1999.90;999.90;;;15.40;1.00;;;;;;5055316;28;20950;-84
2021/05/06 13:20:23;;;;;;;1999.90;999.90;;;15.30;1.00;;;;;;5054938;28;20885;-84
2021/05/06 13:23:01;;;;;;;1999.90;999.90;;;15.10;1.00;;;;;;5055980;28;20922;-84
2021/05/06 13:25:47;;;;;;;1999.90;999.90;;;14.90;1.00;;;;;;5054395;28;20453;-84
2021/05/06 13:28:31;;;;;;;1999.90;999.90;;;14.80;1.00;;;;;;5055556;28;20419;-84
2021/05/06 13:31:07;;;;;;;1999.90;999.90;;;14.70;1.00;;;;;;5055488;28;20391;-84
2021/05/06 13:33:33;;;;;;;1999.90;999.90;;;14.60;1.00;;;;;;5054985;28;20437;-84
2021/05/06 13:36:06;;;;;;;1999.90;999.90;;;14.50;1.00;;;;;;5054515;28;20439;-84
2021/05/06 13:38:50;;;;;;;1999.90;999.90;;;14.40;1.00;;;;;;5055157;28;20423;-84
2021/05/06 13:41:18;;;;;;;1999.90;999.90;;;14.40;1.00;;;;;;5054377;28;20962;-84
2021/05/06 13:43:43;;;;;;;1999.90;999.90;;;14.20;1.00;;;;;;5053222;28;20501;-84
2021/05/06 13:46:10;;;;;;;1999.90;999.90;;;14.00;1.00;;;;;;5056871;28;20766;-84
2021/05/06 13:48:37;;;;;;;1999.90;999.90;;;14.00;1.00;;;;;;5058783;28;20194;-84
2021/05/06 13:51:04;;;;;;;1999.90;999.90;;;13.80;1.00;;;;;;5059021;28;20472;-84
2021/05/06 13:53:40;;;;;;;1999.90;999.90;;;13.90;1.00;;;;;;5058997;28;20407;-85
2021/05/06 13:56:09;;;;;;;1999.90;999.90;;;14.00;1.00;;;;;;5041477;28;20418;-85
2021/05/06 13:58:36;;;;;;;1999.90;999.90;;;14.00;1.00;;;;;;5057761;28;20434;-85
2021/05/06 14:01:07;;;;;;;1999.90;999.90;;;13.90;1.00;;;;;;5057418;28;20411;-85
2021/05/06 14:03:33;;;;;;;1999.90;999.90;;;13.90;1.00;;;;;;5040782;28;20467;-85
2021/05/06 14:06:00;;;;;;;1999.90;999.90;;;13.90;1.00;;;;;;5059105;28;20399;-85
2021/05/06 14:08:30;;;;;;;1999.90;999.90;;;13.80;1.00;;;;;;5057381;28;20853;-85
2021/05/06 14:10:56;;;;;;;1999.90;999.90;;;13.70;1.00;;;;;;5058022;28;20906;-85
2021/05/06 14:13:23;;;;;;;1999.90;999.90;;;13.50;1.00;;;;;;5058699;28;20426;-85
2021/05/06 14:15:55;;;;;;;1999.90;999.90;;;13.40;1.00;;;;;;5041329;28;20406;-85
2021/05/06 14:18:24;;;;;;;1999.90;999.90;;;13.20;1.00;;;;;;5059069;28;20210;-85
2021/05/06 14:20:50;;;;;;;1999.90;999.90;;;13.30;1.00;;;;;;5059346;28;20168;-85
2021/05/06 14:23:18;;;;;;;1999.90;999.90;;;13.20;1.10;;;;;;5058411;28;20442;-85
2021/05/06 14:25:48;;;;;;;1999.90;999.90;;;13.20;1.00;;;;;;5058723;28;20171;-85
2021/05/06 14:28:17;;;;;;;1999.90;999.90;;;13.20;1.50;;;;;;5059101;28;20553;-85
2021/05/06 14:30:43;;;;;;;1999.90;999.90;;;13.10;1.00;;;;;;5040662;28;20188;-85
2021/05/06 14:33:08;;;;;;;1999.90;999.90;;;13.20;2.30;;;;;;5058692;28;20884;-85
2021/05/06 14:35:34;;;;;;;1999.90;999.90;;;13.30;2.20;;;;;;5058684;28;20169;-85
2021/05/06 14:38:00;;;;;;;1999.90;999.90;;;13.40;4.70;;;;;;5058521;28;20191;-85
2021/05/06 14:40:26;;;;;;;1999.90;999.90;;;13.10;6.20;;;;;;5041082;28;20541;-85
2021/05/06 14:42:54;;;;;;;1999.90;999.90;;;13.10;7.00;;;;;;5058520;28;20763;-85
2021/05/06 14:45:20;;;;;;;1999.90;999.90;;;13.20;6.80;;;;;;5057776;28;20157;-85
2021/05/06 14:47:49;;;;;;;1999.90;999.90;;;13.20;6.80;;;;;;5057982;28;20415;-86
2021/05/06 14:50:15;;;;;;;1999.90;999.90;;;13.20;7.90;;;;;;5058263;28;20188;-85
2021/05/06 14:52:41;;;;;;;1999.90;999.90;;;13.30;9.50;;;;;;5056728;28;20173;-85
2021/05/06 14:55:12;;;;;;;1999.90;999.90;;;13.20;9.10;;;;;;5057967;28;20902;-85
2021/05/06 14:57:39;;;;;;;1999.90;999.90;;;13.20;11.20;;;;;;5056267;28;20513;-85
2021/05/06 15:00:06;;;;;;;1999.90;999.90;;;13.20;15.80;;;;;;5057126;28;20439;-85
2021/05/06 15:02:38;;;;;;;1999.90;999.90;;;13.20;16.20;;;;;;5058014;28;20192;-85
2021/05/06 15:05:08;;;;;;;1999.90;999.90;;;13.00;16.80;;;;;;5059352;28;20361;-85
2021/05/06 15:07:34;;;;;;;1999.90;999.90;;;12.90;21.30;;;;;;5059461;28;20177;-86
2021/05/06 15:09:59;;;;;;;1999.90;999.90;;;12.60;27.80;;;;;;5058832;28;20670;-85
2021/05/06 15:12:28;;;;;;;1999.90;999.90;;;12.70;33.80;;;;;;5059553;28;20547;-85
2021/05/06 15:14:53;;;;;;;1999.90;999.90;;;12.70;39.00;;;;;;5041320;28;20497;-85
2021/05/06 15:17:19;;;;;;;1999.90;999.90;;;12.80;46.90;;;;;;5059295;28;20191;-85
2021/05/06 15:19:45;;;;;;;1999.90;999.90;;;12.60;43.20;;;;;;5059771;28;20172;-85
2021/05/06 15:22:10;;;;;;;1999.90;999.90;;;12.60;53.20;;;;;;5058150;28;20196;-85
2021/05/06 15:24:36;;;;;;;1999.90;999.90;;;12.50;60.10;;;;;;5058186;28;20164;-85
2021/05/06 15:27:02;;;;;;;1999.90;999.90;;;12.40;63.80;;;;;;5057765;28;20187;-84
2021/05/06 15:29:27;;;;;;;1999.90;999.90;;;12.40;62.00;;;;;;5057851;28;20218;-85
2021/05/06 15:31:54;;;;;;;1999.90;999.90;;;12.50;82.70;;;;;;5057934;28;20157;-84
2021/05/06 15:34:20;;;;;;;1999.90;999.90;;;12.40;86.40;;;;;;5057911;28;20175;-84
2021/05/06 15:36:46;;;;;;;1999.90;999.90;;;12.40;87.10;;;;;;5057625;28;20161;-84
2021/05/06 15:39:12;;;;;;;1999.90;999.90;;;12.40;90.80;;;;;;5057925;28;20168;-84
2021/05/06 15:41:38;;;;;;;1999.90;999.90;;;12.40;89.30;;;;;;5056679;28;20244;-84
2021/05/06 15:44:04;;;;;;;1999.90;999.90;;;12.30;93.80;;;;;;5057746;28;20710;-83
2021/05/06 15:46:33;;;;;;;1999.90;999.90;;;12.30;92.30;;;;;;5058015;28;20497;-84
2021/05/06 15:49:00;;;;;;;1999.90;999.90;;;12.50;94.70;;;;;;5057703;28;20180;-84